sensor_id;sensor_type;location;lat;lon;timestamp;pressure;altitude;pressure_sealevel;temperature;humidity
42511;BME280;28141;51.120;17.114;2022-09-03T00:03:19;101981.39;;;28.03;35.45
42511;BME280;28141;51.120;17.114;2022-09-03T00:06:34;101977.52;;;28.04;34.49
42511;BME280;28141;51.120;17.114;2022-09-03T00:09:46;101980.93;;;28.06;34.32
42511;BME280;28141;51.120;17.114;2022-09-03T00:13:26;101988.04;;;28.02;34.68
42511;BME280;28141;51.120;17.114;2022-09-03T00:20:02;101979.54;;;27.97;35.40
42511;BME280;28141;51.120;17.114;2022-09-03T00:23:03;101967.79;;;27.95;35.34
42511;BME280;28141;51.120;17.114;2022-09-03T00:26:17;101968.18;;;27.98;35.21
42511;BME280;28141;51.120;17.114;2022-09-03T00:33:19;101969.80;;;27.88;34.58
42511;BME280;28141;51.120;17.114;2022-09-03T00:36:35;101968.23;;;27.92;35.16
42511;BME280;28141;51.120;17.114;2022-09-03T00:39:44;101955.87;;;27.88;35.48
42511;BME280;28141;51.120;17.114;2022-09-03T00:43:22;101964.23;;;27.88;34.93
42511;BME280;28141;51.120;17.114;2022-09-03T00:53:15;101959.20;;;27.78;35.16
42511;BME280;28141;51.120;17.114;2022-09-03T01:00:08;101966.53;;;27.73;34.71
42511;BME280;28141;51.120;17.114;2022-09-03T01:06:48;101965.75;;;27.66;35.14
42511;BME280;28141;51.120;17.114;2022-09-03T01:13:40;101972.63;;;27.63;35.30
42511;BME280;28141;51.120;17.114;2022-09-03T01:20:11;101973.98;;;27.54;35.03
42511;BME280;28141;51.120;17.114;2022-09-03T01:30:18;101973.57;;;27.50;36.16
42511;BME280;28141;51.120;17.114;2022-09-03T01:33:30;101978.70;;;27.53;35.49
42511;BME280;28141;51.120;17.114;2022-09-03T01:46:52;101965.59;;;27.36;36.10
42511;BME280;28141;51.120;17.114;2022-09-03T01:50:09;101958.48;;;27.40;36.18
42511;BME280;28141;51.120;17.114;2022-09-03T02:00:17;101959.63;;;27.32;36.39
42511;BME280;28141;51.120;17.114;2022-09-03T02:03:23;101952.98;;;27.33;36.15
42511;BME280;28141;51.120;17.114;2022-09-03T02:06:29;101957.48;;;27.34;36.17
42511;BME280;28141;51.120;17.114;2022-09-03T02:09:36;101955.14;;;27.31;35.95
42511;BME280;28141;51.120;17.114;2022-09-03T02:13:15;101957.30;;;27.29;35.97
42511;BME280;28141;51.120;17.114;2022-09-03T02:16:23;101956.52;;;27.22;35.79
42511;BME280;28141;51.120;17.114;2022-09-03T02:19:29;101956.52;;;27.22;36.07
42511;BME280;28141;51.120;17.114;2022-09-03T02:22:33;101951.80;;;27.22;36.36
42511;BME280;28141;51.120;17.114;2022-09-03T02:25:40;101950.95;;;27.22;35.64
42511;BME280;28141;51.120;17.114;2022-09-03T02:28:44;101948.39;;;27.20;36.42
42511;BME280;28141;51.120;17.114;2022-09-03T02:31:48;101956.96;;;27.19;35.93
42511;BME280;28141;51.120;17.114;2022-09-03T02:34:52;101953.54;;;27.17;36.06
42511;BME280;28141;51.120;17.114;2022-09-03T02:38:23;101959.59;;;27.14;36.23
42511;BME280;28141;51.120;17.114;2022-09-03T02:41:30;101956.17;;;27.12;36.27
42511;BME280;28141;51.120;17.114;2022-09-03T02:44:36;101951.69;;;27.11;36.37
42511;BME280;28141;51.120;17.114;2022-09-03T02:47:43;101963.88;;;27.10;36.39
42511;BME280;28141;51.120;17.114;2022-09-03T02:50:48;101960.48;;;27.08;36.10
42511;BME280;28141;51.120;17.114;2022-09-03T02:53:51;101962.84;;;27.04;36.59
42511;BME280;28141;51.120;17.114;2022-09-03T02:56:54;101951.12;;;27.02;36.77
42511;BME280;28141;51.120;17.114;2022-09-03T02:59:57;101956.28;;;26.99;36.56
42511;BME280;28141;51.120;17.114;2022-09-03T03:03:02;101955.01;;;26.95;36.18
42511;BME280;28141;51.120;17.114;2022-09-03T03:06:32;101958.86;;;26.94;36.55
42511;BME280;28141;51.120;17.114;2022-09-03T03:09:36;101956.09;;;26.94;36.24
42511;BME280;28141;51.120;17.114;2022-09-03T03:12:39;101949.90;;;26.92;36.38
42511;BME280;28141;51.120;17.114;2022-09-03T03:15:43;101958.89;;;26.87;36.88
42511;BME280;28141;51.120;17.114;2022-09-03T03:18:47;101959.75;;;26.87;36.67
42511;BME280;28141;51.120;17.114;2022-09-03T03:21:50;101953.55;;;26.85;36.69
42511;BME280;28141;51.120;17.114;2022-09-03T03:24:54;101954.63;;;26.84;36.65
42511;BME280;28141;51.120;17.114;2022-09-03T03:27:59;101952.70;;;26.85;36.71
42511;BME280;28141;51.120;17.114;2022-09-03T03:31:12;101955.95;;;26.82;36.83
42511;BME280;28141;51.120;17.114;2022-09-03T03:34:43;101958.13;;;26.73;36.88
42511;BME280;28141;51.120;17.114;2022-09-03T03:37:46;101943.62;;;26.71;36.74
42511;BME280;28141;51.120;17.114;2022-09-03T03:40:49;101948.09;;;26.72;36.95
42511;BME280;28141;51.120;17.114;2022-09-03T03:43:54;101947.02;;;26.73;36.86
42511;BME280;28141;51.120;17.114;2022-09-03T03:46:57;101951.97;;;26.71;36.87
42511;BME280;28141;51.120;17.114;2022-09-03T03:50:01;101962.89;;;26.66;36.54
42511;BME280;28141;51.120;17.114;2022-09-03T03:53:05;101956.47;;;26.66;36.82
42511;BME280;28141;51.120;17.114;2022-09-03T03:56:11;101950.06;;;26.65;37.15
42511;BME280;28141;51.120;17.114;2022-09-03T03:59:15;101950.50;;;26.62;37.19
42511;BME280;28141;51.120;17.114;2022-09-03T04:02:18;101965.25;;;26.63;37.00
42511;BME280;28141;51.120;17.114;2022-09-03T04:05:55;101962.95;;;26.60;37.10
42511;BME280;28141;51.120;17.114;2022-09-03T04:08:59;101958.67;;;26.57;37.28
42511;BME280;28141;51.120;17.114;2022-09-03T04:12:02;101958.67;;;26.57;37.07
42511;BME280;28141;51.120;17.114;2022-09-03T04:15:10;101960.38;;;26.58;37.17
42511;BME280;28141;51.120;17.114;2022-09-03T04:18:14;101964.23;;;26.57;37.13
42511;BME280;28141;51.120;17.114;2022-09-03T04:21:22;101958.04;;;26.55;37.35
42511;BME280;28141;51.120;17.114;2022-09-03T04:24:26;101956.33;;;26.54;37.23
42511;BME280;28141;51.120;17.114;2022-09-03T04:27:30;101959.75;;;26.56;37.09
42511;BME280;28141;51.120;17.114;2022-09-03T04:30:33;101964.67;;;26.54;37.20
42511;BME280;28141;51.120;17.114;2022-09-03T04:33:37;101965.96;;;26.51;37.42
42511;BME280;28141;51.120;17.114;2022-09-03T04:37:07;101969.59;;;26.52;37.28
42511;BME280;28141;51.120;17.114;2022-09-03T04:40:12;101968.96;;;26.50;37.43
42511;BME280;28141;51.120;17.114;2022-09-03T04:43:16;101972.37;;;26.52;37.12
42511;BME280;28141;51.120;17.114;2022-09-03T04:46:21;101984.12;;;26.54;37.09
42511;BME280;28141;51.120;17.114;2022-09-03T04:49:25;101980.91;;;26.57;37.33
42511;BME280;28141;51.120;17.114;2022-09-03T04:52:28;101980.05;;;26.57;37.28
42511;BME280;28141;51.120;17.114;2022-09-03T04:55:34;101978.56;;;26.54;37.25
42511;BME280;28141;51.120;17.114;2022-09-03T04:58:39;101972.57;;;26.57;37.56
42511;BME280;28141;51.120;17.114;2022-09-03T05:01:46;101969.35;;;26.60;37.34
42511;BME280;28141;51.120;17.114;2022-09-03T05:05:18;101969.80;;;26.57;37.19
42511;BME280;28141;51.120;17.114;2022-09-03T05:08:22;101979.62;;;26.60;37.19
42511;BME280;28141;51.120;17.114;2022-09-03T05:11:27;101995.22;;;26.61;37.13
42511;BME280;28141;51.120;17.114;2022-09-03T05:14:31;101997.53;;;26.64;37.20
42511;BME280;28141;51.120;17.114;2022-09-03T05:17:34;101995.40;;;26.66;37.22
42511;BME280;28141;51.120;17.114;2022-09-03T05:20:40;102001.38;;;26.69;37.27
42511;BME280;28141;51.120;17.114;2022-09-03T05:23:45;102006.46;;;26.72;37.02
42511;BME280;28141;51.120;17.114;2022-09-03T05:28:00;102006.71;;;26.71;37.02
42511;BME280;28141;51.120;17.114;2022-09-03T05:31:06;102009.02;;;26.74;37.07
42511;BME280;28141;51.120;17.114;2022-09-03T05:34:10;102001.73;;;26.79;37.30
42511;BME280;28141;51.120;17.114;2022-09-03T05:37:14;101997.24;;;26.78;37.18
42511;BME280;28141;51.120;17.114;2022-09-03T05:40:17;101998.31;;;26.77;36.94
42511;BME280;28141;51.120;17.114;2022-09-03T05:43:20;101995.95;;;26.81;36.92
42511;BME280;28141;51.120;17.114;2022-09-03T05:46:27;101999.13;;;26.84;36.82
42511;BME280;28141;51.120;17.114;2022-09-03T05:49:34;102004.02;;;26.89;36.79
42511;BME280;28141;51.120;17.114;2022-09-03T05:52:37;102003.16;;;26.88;36.78
42511;BME280;28141;51.120;17.114;2022-09-03T05:55:40;101999.95;;;26.92;36.97
42511;BME280;28141;51.120;17.114;2022-09-03T05:59:10;102005.06;;;26.95;36.71
42511;BME280;28141;51.120;17.114;2022-09-03T06:02:15;102002.70;;;26.98;36.51
42511;BME280;28141;51.120;17.114;2022-09-03T06:05:21;102006.33;;;26.99;36.68
42511;BME280;28141;51.120;17.114;2022-09-03T06:08:25;102003.34;;;27.00;36.35
42511;BME280;28141;51.120;17.114;2022-09-03T06:11:29;102004.56;;;27.04;36.55
42511;BME280;28141;51.120;17.114;2022-09-03T06:14:34;102003.68;;;27.10;36.43
42511;BME280;28141;51.120;17.114;2022-09-03T06:17:37;101998.28;;;27.15;36.51
42511;BME280;28141;51.120;17.114;2022-09-03T06:20:41;101999.39;;;27.14;36.04
42511;BME280;28141;51.120;17.114;2022-09-03T06:23:48;102009.81;;;27.19;36.41
42511;BME280;28141;51.120;17.114;2022-09-03T06:27:20;102010.45;;;27.21;36.32
42511;BME280;28141;51.120;17.114;2022-09-03T06:30:24;102015.56;;;27.24;36.11
42511;BME280;28141;51.120;17.114;2022-09-03T06:33:31;102016.42;;;27.24;36.18
42511;BME280;28141;51.120;17.114;2022-09-03T06:36:35;102009.09;;;27.30;36.54
42511;BME280;28141;51.120;17.114;2022-09-03T06:39:38;102014.20;;;27.33;36.40
42511;BME280;28141;51.120;17.114;2022-09-03T06:42:42;102023.56;;;27.39;36.17
42511;BME280;28141;51.120;17.114;2022-09-03T06:45:55;102015.22;;;27.39;35.97
42511;BME280;28141;51.120;17.114;2022-09-03T06:48:58;102017.98;;;27.39;36.12
42511;BME280;28141;51.120;17.114;2022-09-03T06:52:02;102029.68;;;27.47;36.35
42511;BME280;28141;51.120;17.114;2022-09-03T06:55:32;102030.73;;;27.53;35.92
42511;BME280;28141;51.120;17.114;2022-09-03T06:58:40;102027.68;;;27.61;35.57
42511;BME280;28141;51.120;17.114;2022-09-03T07:01:45;102029.79;;;27.66;35.84
42511;BME280;28141;51.120;17.114;2022-09-03T07:04:49;102029.08;;;27.70;35.57
42511;BME280;28141;51.120;17.114;2022-09-03T07:07:52;102033.12;;;27.74;35.66
42511;BME280;28141;51.120;17.114;2022-09-03T07:10:56;102029.03;;;27.77;35.69
42511;BME280;28141;51.120;17.114;2022-09-03T07:14:00;102030.88;;;27.83;34.90
42511;BME280;28141;51.120;17.114;2022-09-03T07:17:04;102018.23;;;27.87;35.26
42511;BME280;28141;51.120;17.114;2022-09-03T07:20:08;102021.41;;;27.90;35.38
42511;BME280;28141;51.120;17.114;2022-09-03T07:23:11;102019.61;;;27.96;35.98
42511;BME280;28141;51.120;17.114;2022-09-03T07:26:46;102022.58;;;28.01;35.23
42511;BME280;28141;51.120;17.114;2022-09-03T07:29:51;102024.42;;;28.07;35.09
42511;BME280;28141;51.120;17.114;2022-09-03T07:32:54;102014.76;;;28.10;35.38
42511;BME280;28141;51.120;17.114;2022-09-03T07:36:07;102030.77;;;28.14;34.38
42511;BME280;28141;51.120;17.114;2022-09-03T07:39:13;102028.83;;;28.15;35.63
42511;BME280;28141;51.120;17.114;2022-09-03T07:42:17;102023.59;;;28.25;35.29
42511;BME280;28141;51.120;17.114;2022-09-03T07:45:22;102028.94;;;28.26;34.81
42511;BME280;28141;51.120;17.114;2022-09-03T07:48:25;102022.19;;;28.34;34.64
42511;BME280;28141;51.120;17.114;2022-09-03T07:51:33;102017.63;;;28.40;34.73
42511;BME280;28141;51.120;17.114;2022-09-03T07:55:04;102021.66;;;28.44;34.65
42511;BME280;28141;51.120;17.114;2022-09-03T07:58:08;102019.46;;;28.46;34.63
42511;BME280;28141;51.120;17.114;2022-09-03T08:01:19;102021.10;;;28.53;34.11
42511;BME280;28141;51.120;17.114;2022-09-03T08:04:23;102023.79;;;28.60;34.24
42511;BME280;28141;51.120;17.114;2022-09-03T08:07:29;102016.89;;;28.62;34.47
42511;BME280;28141;51.120;17.114;2022-09-03T08:10:36;102021.75;;;28.67;34.23
42511;BME280;28141;51.120;17.114;2022-09-03T08:13:43;102024.93;;;28.70;33.84
42511;BME280;28141;51.120;17.114;2022-09-03T08:16:47;102025.94;;;28.76;34.39
42511;BME280;28141;51.120;17.114;2022-09-03T08:20:18;102024.62;;;28.79;34.18
42511;BME280;28141;51.120;17.114;2022-09-03T08:23:21;102015.79;;;28.82;34.22
42511;BME280;28141;51.120;17.114;2022-09-03T08:26:25;102017.88;;;28.86;34.40
42511;BME280;28141;51.120;17.114;2022-09-03T08:29:28;102012.19;;;28.93;34.18
42511;BME280;28141;51.120;17.114;2022-09-03T08:32:33;102010.40;;;28.98;33.99
42511;BME280;28141;51.120;17.114;2022-09-03T08:35:37;102010.53;;;29.03;33.76
42511;BME280;28141;51.120;17.114;2022-09-03T08:38:43;101998.16;;;29.11;33.82
42511;BME280;28141;51.120;17.114;2022-09-03T08:45:35;101997.45;;;29.16;33.71
42511;BME280;28141;51.120;17.114;2022-09-03T08:48:41;101994.07;;;29.25;33.59
42511;BME280;28141;51.120;17.114;2022-09-03T08:51:46;101994.55;;;29.34;33.32
42511;BME280;28141;51.120;17.114;2022-09-03T08:54:57;101999.23;;;29.40;33.48
42511;BME280;28141;51.120;17.114;2022-09-03T08:58:05;101992.66;;;29.46;33.37
42511;BME280;28141;51.120;17.114;2022-09-03T09:01:22;101988.42;;;29.55;32.87
42511;BME280;28141;51.120;17.114;2022-09-03T09:08:19;101986.71;;;29.66;32.83
42511;BME280;28141;51.120;17.114;2022-09-03T09:18:35;101989.02;;;29.81;32.89
42511;BME280;28141;51.120;17.114;2022-09-03T09:21:40;101981.96;;;29.90;32.92
42511;BME280;28141;51.120;17.114;2022-09-03T09:24:49;101978.82;;;29.98;32.01
42511;BME280;28141;51.120;17.114;2022-09-03T09:31:13;101976.15;;;30.03;33.12
42511;BME280;28141;51.120;17.114;2022-09-03T09:34:46;101971.26;;;30.10;32.50
42511;BME280;28141;51.120;17.114;2022-09-03T09:37:57;101974.18;;;30.15;32.41
42511;BME280;28141;51.120;17.114;2022-09-03T09:41:09;101956.65;;;30.20;33.08
42511;BME280;28141;51.120;17.114;2022-09-03T09:44:19;101962.00;;;30.21;33.05
42511;BME280;28141;51.120;17.114;2022-09-03T09:47:27;101955.91;;;30.24;31.81
42511;BME280;28141;51.120;17.114;2022-09-03T09:50:33;101958.67;;;30.36;32.50
42511;BME280;28141;51.120;17.114;2022-09-03T09:57:24;101950.74;;;30.44;32.37
42511;BME280;28141;51.120;17.114;2022-09-03T10:00:28;101955.06;;;30.52;31.88
42511;BME280;28141;51.120;17.114;2022-09-03T10:03:50;101947.42;;;30.59;32.13
42511;BME280;28141;51.120;17.114;2022-09-03T10:06:54;101947.26;;;30.66;32.95
42511;BME280;28141;51.120;17.114;2022-09-03T10:10:29;101953.95;;;30.65;31.85
42511;BME280;28141;51.120;17.114;2022-09-03T10:13:42;101943.55;;;30.77;31.15
42511;BME280;28141;51.120;17.114;2022-09-03T10:16:52;101938.38;;;30.85;31.76
42511;BME280;28141;51.120;17.114;2022-09-03T10:20:06;101939.16;;;30.98;31.50
42511;BME280;28141;51.120;17.114;2022-09-03T10:23:56;101939.41;;;30.96;31.50
42511;BME280;28141;51.120;17.114;2022-09-03T10:27:01;101935.81;;;31.12;31.41
42511;BME280;28141;51.120;17.114;2022-09-03T10:30:06;101941.58;;;31.23;31.06
42511;BME280;28141;51.120;17.114;2022-09-03T10:33:18;101935.29;;;31.32;31.01
42511;BME280;28141;51.120;17.114;2022-09-03T10:39:51;101930.76;;;31.48;30.65
42511;BME280;28141;51.120;17.114;2022-09-03T10:57:07;101923.09;;;31.60;30.78
42511;BME280;28141;51.120;17.114;2022-09-03T11:00:10;101927.18;;;31.69;30.52
42511;BME280;28141;51.120;17.114;2022-09-03T11:06:40;101911.94;;;31.82;30.32
42511;BME280;28141;51.120;17.114;2022-09-03T11:10:20;101909.02;;;31.93;30.45
42511;BME280;28141;51.120;17.114;2022-09-03T11:13:33;101897.63;;;32.00;30.36
42511;BME280;28141;51.120;17.114;2022-09-03T11:16:46;101892.98;;;32.11;29.89
42511;BME280;28141;51.120;17.114;2022-09-03T11:19:59;101891.07;;;32.16;30.65
42511;BME280;28141;51.120;17.114;2022-09-03T11:23:07;101884.47;;;32.22;30.38
42511;BME280;28141;51.120;17.114;2022-09-03T11:30:01;101878.89;;;32.27;29.93
42511;BME280;28141;51.120;17.114;2022-09-03T11:33:10;101882.88;;;32.32;30.58
42511;BME280;28141;51.120;17.114;2022-09-03T11:36:22;101875.94;;;32.39;29.92
42511;BME280;28141;51.120;17.114;2022-09-03T11:40:12;101873.76;;;32.46;30.32
42511;BME280;28141;51.120;17.114;2022-09-03T11:43:27;101870.49;;;32.54;30.44
42511;BME280;28141;51.120;17.114;2022-09-03T11:46:31;101862.37;;;32.58;30.09
42511;BME280;28141;51.120;17.114;2022-09-03T11:49:44;101860.50;;;32.69;30.12
42511;BME280;28141;51.120;17.114;2022-09-03T11:52:50;101858.11;;;32.77;29.21
42511;BME280;28141;51.120;17.114;2022-09-03T11:56:00;101868.57;;;32.87;30.10
42511;BME280;28141;51.120;17.114;2022-09-03T11:59:37;101874.79;;;32.94;29.55
42511;BME280;28141;51.120;17.114;2022-09-03T12:02:47;101865.59;;;32.98;29.25
42511;BME280;28141;51.120;17.114;2022-09-03T12:22:37;101859.30;;;33.23;28.79
42511;BME280;28141;51.120;17.114;2022-09-03T12:25:45;101859.95;;;33.35;28.82
42511;BME280;28141;51.120;17.114;2022-09-03T12:28:52;101849.29;;;33.43;29.11
42511;BME280;28141;51.120;17.114;2022-09-03T12:32:28;101855.80;;;33.48;28.99
42511;BME280;28141;51.120;17.114;2022-09-03T12:35:34;101838.73;;;33.60;29.57
42511;BME280;28141;51.120;17.114;2022-09-03T12:38:38;101840.16;;;33.67;28.89
42511;BME280;28141;51.120;17.114;2022-09-03T12:45:05;101850.59;;;33.72;28.89
42511;BME280;28141;51.120;17.114;2022-09-03T12:48:16;101853.44;;;33.77;29.07
42511;BME280;28141;51.120;17.114;2022-09-03T12:51:49;101852.35;;;33.88;28.67
42511;BME280;28141;51.120;17.114;2022-09-03T12:55:00;101850.42;;;33.94;28.72
42511;BME280;28141;51.120;17.114;2022-09-03T13:01:32;101845.06;;;33.97;28.55
42511;BME280;28141;51.120;17.114;2022-09-03T13:04:38;101840.05;;;34.04;28.41
42511;BME280;28141;51.120;17.114;2022-09-03T13:07:48;101835.57;;;34.14;27.92
42511;BME280;28141;51.120;17.114;2022-09-03T13:11:24;101836.41;;;34.19;28.31
42511;BME280;28141;51.120;17.114;2022-09-03T13:14:28;101841.23;;;34.29;28.03
42511;BME280;28141;51.120;17.114;2022-09-03T13:27:29;101845.76;;;34.35;28.13
42511;BME280;28141;51.120;17.114;2022-09-03T13:37:36;101847.17;;;34.42;28.02
42511;BME280;28141;51.120;17.114;2022-09-03T13:40:46;101838.75;;;34.48;27.92
42511;BME280;28141;51.120;17.114;2022-09-03T13:51:12;101833.95;;;34.28;27.90
42511;BME280;28141;51.120;17.114;2022-09-03T13:54:26;101838.99;;;34.31;28.35
42511;BME280;28141;51.120;17.114;2022-09-03T13:58:09;101837.88;;;34.32;28.19
42511;BME280;28141;51.120;17.114;2022-09-03T14:01:24;101832.82;;;34.34;27.91
42511;BME280;28141;51.120;17.114;2022-09-03T14:21:17;101828.60;;;34.41;28.11
42511;BME280;28141;51.120;17.114;2022-09-03T14:24:55;101833.97;;;34.58;28.01
42511;BME280;28141;51.120;17.114;2022-09-03T14:34:40;101835.67;;;34.59;27.61
42511;BME280;28141;51.120;17.114;2022-09-03T14:38:26;101837.06;;;34.57;27.89
42511;BME280;28141;51.120;17.114;2022-09-03T14:44:51;101817.09;;;34.84;27.22
42511;BME280;28141;51.120;17.114;2022-09-03T14:58:17;101827.19;;;35.10;27.29
42511;BME280;28141;51.120;17.114;2022-09-03T15:01:32;101824.95;;;35.12;27.72
42511;BME280;28141;51.120;17.114;2022-09-03T15:11:32;101827.73;;;35.22;27.29
42511;BME280;28141;51.120;17.114;2022-09-03T15:14:49;101827.13;;;35.45;27.20
42511;BME280;28141;51.120;17.114;2022-09-03T15:18:31;101832.69;;;35.66;26.96
42511;BME280;28141;51.120;17.114;2022-09-03T15:21:50;101823.59;;;35.89;26.79
42511;BME280;28141;51.120;17.114;2022-09-03T15:28:14;101831.25;;;36.33;26.31
42511;BME280;28141;51.120;17.114;2022-09-03T15:35:08;101830.95;;;36.73;25.72
42511;BME280;28141;51.120;17.114;2022-09-03T15:38:24;101819.45;;;36.93;25.39
42511;BME280;28141;51.120;17.114;2022-09-03T15:45:28;101831.95;;;36.87;25.71
42511;BME280;28141;51.120;17.114;2022-09-03T15:55:09;101811.89;;;37.18;25.29
42511;BME280;28141;51.120;17.114;2022-09-03T15:58:54;101824.69;;;37.34;25.34
42511;BME280;28141;51.120;17.114;2022-09-03T16:05:18;101832.02;;;37.59;25.32
42511;BME280;28141;51.120;17.114;2022-09-03T16:12:32;101833.77;;;37.79;24.99
42511;BME280;28141;51.120;17.114;2022-09-03T16:15:28;101832.48;;;37.90;24.84
42511;BME280;28141;51.120;17.114;2022-09-03T16:18:39;101835.48;;;37.98;24.78
42511;BME280;28141;51.120;17.114;2022-09-03T16:25:06;101831.68;;;38.08;24.68
42511;BME280;28141;51.120;17.114;2022-09-03T16:28:26;101828.86;;;38.08;24.63
42511;BME280;28141;51.120;17.114;2022-09-03T16:35:14;101830.59;;;38.04;24.69
42511;BME280;28141;51.120;17.114;2022-09-03T16:41:46;101833.58;;;37.94;24.50
42511;BME280;28141;51.120;17.114;2022-09-03T16:45:26;101834.95;;;37.96;24.76
42511;BME280;28141;51.120;17.114;2022-09-03T17:09:28;101839.95;;;37.33;25.26
42511;BME280;28141;51.120;17.114;2022-09-03T17:12:38;101839.30;;;37.12;25.44
42511;BME280;28141;51.120;17.114;2022-09-03T17:16:00;101831.02;;;36.97;25.64
42511;BME280;28141;51.120;17.114;2022-09-03T17:22:57;101830.45;;;36.61;25.92
42511;BME280;28141;51.120;17.114;2022-09-03T17:29:28;101832.11;;;36.28;26.23
42511;BME280;28141;51.120;17.114;2022-09-03T17:36:26;101841.01;;;36.01;26.55
42511;BME280;28141;51.120;17.114;2022-09-03T17:46:17;101842.56;;;35.63;26.71
42511;BME280;28141;51.120;17.114;2022-09-03T17:53:11;101846.89;;;35.30;27.42
42511;BME280;28141;51.120;17.114;2022-09-03T17:56:24;101851.72;;;35.25;27.17
42511;BME280;28141;51.120;17.114;2022-09-03T18:03:21;101839.61;;;34.89;27.64
42511;BME280;28141;51.120;17.114;2022-09-03T18:06:35;101840.75;;;34.77;27.76
42511;BME280;28141;51.120;17.114;2022-09-03T18:09:50;101841.30;;;34.69;28.19
42511;BME280;28141;51.120;17.114;2022-09-03T18:19:59;101840.70;;;34.37;28.40
42511;BME280;28141;51.120;17.114;2022-09-03T18:23:33;101842.34;;;34.23;28.70
42511;BME280;28141;51.120;17.114;2022-09-03T18:30:38;101860.24;;;33.91;28.91
42511;BME280;28141;51.120;17.114;2022-09-03T18:33:54;101862.45;;;33.79;28.84
42511;BME280;28141;51.120;17.114;2022-09-03T18:37:39;101877.23;;;33.64;29.23
42511;BME280;28141;51.120;17.114;2022-09-03T18:41:05;101881.09;;;33.48;29.15
42511;BME280;28141;51.120;17.114;2022-09-03T18:48:33;101892.04;;;32.76;29.98
42511;BME280;28141;51.120;17.114;2022-09-03T18:51:57;101888.44;;;32.53;30.95
42511;BME280;28141;51.120;17.114;2022-09-03T18:59:21;101900.80;;;32.09;30.92
42511;BME280;28141;51.120;17.114;2022-09-03T19:02:51;101894.41;;;31.91;31.34
42511;BME280;28141;51.120;17.114;2022-09-03T19:06:48;101900.60;;;31.72;31.42
42511;BME280;28141;51.120;17.114;2022-09-03T19:10:15;101901.73;;;31.54;31.75
42511;BME280;28141;51.120;17.114;2022-09-03T19:14:05;101909.30;;;31.37;31.91
42511;BME280;28141;51.120;17.114;2022-09-03T19:24:48;101906.43;;;30.98;32.45
42511;BME280;28141;51.120;17.114;2022-09-03T19:28:16;101902.97;;;30.91;32.43
42511;BME280;28141;51.120;17.114;2022-09-03T19:35:33;101907.60;;;30.69;32.86
42511;BME280;28141;51.120;17.114;2022-09-03T19:42:33;101900.52;;;30.49;33.36
42511;BME280;28141;51.120;17.114;2022-09-03T19:46:32;101914.27;;;30.39;33.30
42511;BME280;28141;51.120;17.114;2022-09-03T19:49:57;101910.54;;;30.34;33.75
42511;BME280;28141;51.120;17.114;2022-09-03T19:53:40;101919.34;;;30.26;33.50
42511;BME280;28141;51.120;17.114;2022-09-03T19:56:56;101916.78;;;30.24;32.52
42511;BME280;28141;51.120;17.114;2022-09-03T20:00:12;101915.48;;;30.15;33.75
42511;BME280;28141;51.120;17.114;2022-09-03T20:03:28;101929.10;;;30.11;33.15
42511;BME280;28141;51.120;17.114;2022-09-03T20:07:10;101922.58;;;30.06;33.77
42511;BME280;28141;51.120;17.114;2022-09-03T20:10:27;101924.87;;;29.97;33.69
42511;BME280;28141;51.120;17.114;2022-09-03T20:13:32;101915.64;;;29.97;33.57
42511;BME280;28141;51.120;17.114;2022-09-03T20:30:22;101912.55;;;29.58;34.54
42511;BME280;28141;51.120;17.114;2022-09-03T20:40:40;101925.66;;;29.46;34.93
42511;BME280;28141;51.120;17.114;2022-09-03T20:50:53;101932.44;;;29.27;35.35
42511;BME280;28141;51.120;17.114;2022-09-03T20:57:25;101932.56;;;29.20;35.18
42511;BME280;28141;51.120;17.114;2022-09-03T21:24:20;101950.88;;;28.75;36.01
42511;BME280;28141;51.120;17.114;2022-09-03T21:31:14;101953.43;;;28.76;35.81
42511;BME280;28141;51.120;17.114;2022-09-03T21:34:29;101955.60;;;28.74;35.68
42511;BME280;28141;51.120;17.114;2022-09-03T21:37:36;101948.32;;;28.73;35.56
42511;BME280;28141;51.120;17.114;2022-09-03T21:40:46;101953.67;;;28.75;35.42
42511;BME280;28141;51.120;17.114;2022-09-03T21:44:04;101953.89;;;28.73;35.70
42511;BME280;28141;51.120;17.114;2022-09-03T21:47:43;101960.40;;;28.67;35.92
42511;BME280;28141;51.120;17.114;2022-09-03T21:50:51;101958.12;;;28.64;36.24
42511;BME280;28141;51.120;17.114;2022-09-03T21:54:05;101959.20;;;28.63;36.10
42511;BME280;28141;51.120;17.114;2022-09-03T21:57:38;101951.52;;;28.58;35.75
42511;BME280;28141;51.120;17.114;2022-09-03T22:01:05;101961.32;;;28.49;36.20
42511;BME280;28141;51.120;17.114;2022-09-03T22:04:08;101954.04;;;28.48;36.59
42511;BME280;28141;51.120;17.114;2022-09-03T22:10:38;101968.09;;;28.42;36.48
42511;BME280;28141;51.120;17.114;2022-09-03T22:20:47;101975.38;;;28.24;36.40
42511;BME280;28141;51.120;17.114;2022-09-03T22:24:09;101972.74;;;28.29;36.43
42511;BME280;28141;51.120;17.114;2022-09-03T22:51:11;101975.82;;;28.03;37.06
42511;BME280;28141;51.120;17.114;2022-09-03T22:54:53;101959.50;;;28.07;36.97
42511;BME280;28141;51.120;17.114;2022-09-03T22:58:10;101952.23;;;28.06;37.09
42511;BME280;28141;51.120;17.114;2022-09-03T23:01:23;101953.76;;;28.02;36.97
42511;BME280;28141;51.120;17.114;2022-09-03T23:11:32;101958.44;;;27.89;37.22
42511;BME280;28141;51.120;17.114;2022-09-03T23:14:44;101950.45;;;27.93;37.09
42511;BME280;28141;51.120;17.114;2022-09-03T23:18:05;101940.16;;;27.93;37.38
42511;BME280;28141;51.120;17.114;2022-09-03T23:21:21;101942.09;;;27.93;37.25